createdAt,value
2023-05-21T00:02:51.652Z,101094.53
2023-05-21T00:07:45.961Z,101095.06
2023-05-21T00:12:39.233Z,101077.41
2023-05-21T00:17:34.268Z,101070.28
2023-05-21T00:22:27.470Z,101071.25
2023-05-21T00:27:22.176Z,101073.75
2023-05-21T00:32:15.569Z,101041.94
2023-05-21T00:37:10.683Z,101053.50
2023-05-21T00:42:04.661Z,101062.16
2023-05-21T00:46:59.097Z,101043.59
2023-05-21T00:51:53.178Z,101040.03
2023-05-21T00:56:48.636Z,101024.66
2023-05-21T01:01:41.948Z,101037.84
2023-05-21T01:06:35.646Z,101041.16
2023-05-21T01:11:38.855Z,101032.84
2023-05-21T01:16:36.428Z,101009.78
2023-05-21T01:21:31.575Z,101031.41
2023-05-21T01:26:26.428Z,101031.41
2023-05-21T01:31:27.726Z,101033.34
2023-05-21T01:36:26.378Z,100901.00
2023-05-21T01:41:21.229Z,101029.81
2023-05-21T01:46:21.222Z,101011.94
2023-05-21T01:51:15.028Z,100980.72
2023-05-21T01:56:08.807Z,101021.38
2023-05-21T02:01:02.905Z,101023.53
2023-05-21T02:05:57.523Z,101006.97
2023-05-21T02:10:50.885Z,100898.56
2023-05-21T02:15:44.998Z,101026.88
2023-05-21T02:20:39.249Z,101025.94
2023-05-21T02:25:34.063Z,101021.19
2023-05-21T02:30:27.566Z,101011.53
2023-05-21T02:35:21.035Z,101024.09
2023-05-21T02:40:14.641Z,101010.38
2023-05-21T02:45:11.156Z,100995.75
2023-05-21T02:50:07.941Z,100983.34
2023-05-21T02:55:06.442Z,100947.03
2023-05-21T02:59:59.803Z,101009.09
2023-05-21T03:04:54.845Z,101003.84
2023-05-21T03:09:48.567Z,100988.13
2023-05-21T03:14:44.230Z,101020.53
2023-05-21T03:19:37.477Z,101034.94
2023-05-21T03:24:33.325Z,101009.56
2023-05-21T03:29:28.681Z,101035.75
2023-05-21T03:34:24.202Z,101030.16
2023-05-21T03:39:17.562Z,101041.00
2023-05-21T03:44:12.560Z,101033.28
2023-05-21T03:49:21.352Z,100994.53
2023-05-21T03:54:17.241Z,100893.44
2023-05-21T03:59:10.606Z,100970.03
2023-05-21T04:04:05.288Z,101023.00
2023-05-21T04:08:59.436Z,101046.47
2023-05-21T04:13:52.656Z,101038.50
2023-05-21T04:18:45.895Z,101047.41
2023-05-21T04:23:42.833Z,101049.44
2023-05-21T04:28:46.049Z,101047.16
2023-05-21T04:33:42.234Z,101041.28
2023-05-21T04:38:37.089Z,101041.56
2023-05-21T04:43:33.519Z,101040.44
2023-05-21T04:48:28.848Z,101048.59
2023-05-21T04:53:22.120Z,101020.00
2023-05-21T04:58:19.306Z,101056.69
2023-05-21T05:03:15.164Z,101042.97
2023-05-21T05:08:10.291Z,100987.91
2023-05-21T05:13:03.865Z,101039.91
2023-05-21T05:17:57.184Z,101046.00
2023-05-21T05:22:51.911Z,101042.75
2023-05-21T05:27:45.106Z,101040.47
2023-05-21T05:32:41.379Z,101036.09
2023-05-21T05:37:34.791Z,101035.31
2023-05-21T05:42:29.691Z,101031.75
2023-05-21T05:47:30.276Z,101035.91
2023-05-21T05:52:23.676Z,101015.97
2023-05-21T05:57:16.952Z,101026.59
2023-05-21T06:02:15.172Z,101035.56
2023-05-21T06:07:08.944Z,101029.50
2023-05-21T06:12:02.280Z,101028.63
2023-05-21T06:16:55.664Z,101033.31
2023-05-21T06:21:50.537Z,100991.72
2023-05-21T06:26:43.998Z,101002.19
2023-05-21T06:31:38.018Z,101017.16
2023-05-21T06:36:32.543Z,101020.44
2023-05-21T06:41:27.613Z,101001.78
2023-05-21T06:46:24.354Z,101012.31
2023-05-21T06:51:18.888Z,100892.47
2023-05-21T06:56:13.145Z,100987.13
2023-05-21T07:01:11.834Z,100994.63
2023-05-21T07:06:05.332Z,101005.09
2023-05-21T07:10:58.582Z,100996.47
2023-05-21T07:15:52.472Z,100986.53
2023-05-21T07:20:47.176Z,100982.56
2023-05-21T07:25:42.441Z,100977.44
2023-05-21T07:30:35.789Z,100974.88
2023-05-21T07:35:31.996Z,100987.28
2023-05-21T07:40:30.753Z,100968.34
2023-05-21T07:45:28.728Z,100952.53
2023-05-21T07:50:22.662Z,100940.69
2023-05-21T07:55:16.062Z,100955.75
2023-05-21T08:00:14.430Z,100885.38
2023-05-21T08:05:17.594Z,100938.25
2023-05-21T08:10:11.548Z,100932.91
2023-05-21T08:15:06.888Z,100942.50
2023-05-21T08:20:06.696Z,100942.91
2023-05-21T08:25:02.787Z,100938.78
2023-05-21T08:29:56.268Z,100934.41
2023-05-21T08:34:49.752Z,100945.28
2023-05-21T08:39:55.663Z,100954.09
2023-05-21T08:44:53.348Z,100948.47
2023-05-21T08:49:53.361Z,100947.44
2023-05-21T08:54:48.387Z,100941.25
2023-05-21T08:59:45.317Z,100930.94
2023-05-21T09:04:57.094Z,100936.09
2023-05-21T09:09:56.189Z,100950.47
2023-05-21T09:14:51.255Z,100950.09
2023-05-21T09:20:12.359Z,100957.53
2023-05-21T09:25:10.798Z,100943.31
2023-05-21T09:30:10.623Z,100957.69
2023-05-21T09:35:15.022Z,100957.09
2023-05-21T09:40:17.104Z,100950.50
2023-05-21T09:45:13.580Z,100957.28
2023-05-21T09:50:08.361Z,100946.19
2023-05-21T09:55:02.093Z,100929.34
2023-05-21T09:59:56.750Z,100934.63
2023-05-21T10:04:53.056Z,100929.59
2023-05-21T10:09:48.915Z,100922.91
2023-05-21T10:14:47.132Z,100941.47
2023-05-21T10:19:42.486Z,100933.13
2023-05-21T10:24:38.383Z,100938.97
2023-05-21T10:29:32.573Z,100933.00
2023-05-21T10:34:26.014Z,100943.69
2023-05-21T10:39:25.491Z,100928.06
2023-05-21T10:44:26.637Z,100914.63
2023-05-21T10:49:34.443Z,100925.72
2023-05-21T10:54:48.935Z,100899.84
2023-05-21T10:59:45.173Z,100876.69
2023-05-21T11:04:40.267Z,100910.09
2023-05-21T11:09:33.613Z,100911.66
2023-05-21T11:14:33.015Z,100902.88
2023-05-21T11:19:37.293Z,100892.78
2023-05-21T11:24:34.669Z,100877.16
2023-05-21T11:29:33.745Z,100897.94
2023-05-21T11:34:29.363Z,100872.91
2023-05-21T11:39:27.130Z,100874.00
2023-05-21T11:44:22.851Z,100881.72
2023-05-21T11:49:17.096Z,100874.88
2023-05-21T11:54:12.149Z,100870.06
2023-05-21T11:59:06.718Z,100872.44
2023-05-21T12:04:00.607Z,100867.00
2023-05-21T12:08:58.564Z,100849.28
2023-05-21T12:13:52.087Z,100843.50
2023-05-21T12:18:46.906Z,100844.16
2023-05-21T12:23:40.064Z,100810.72
2023-05-21T12:28:33.737Z,100831.97
2023-05-21T12:33:34.386Z,100824.75
2023-05-21T12:38:32.842Z,100840.75
2023-05-21T12:43:26.181Z,100830.59
2023-05-21T12:48:19.389Z,100813.72
2023-05-21T12:53:13.123Z,100834.44
2023-05-21T12:58:09.338Z,100834.97
2023-05-21T13:03:04.656Z,100829.50
2023-05-21T13:07:57.962Z,100820.78
2023-05-21T13:12:51.154Z,100837.81
2023-05-21T13:17:48.459Z,100841.00
2023-05-21T13:22:44.278Z,100810.50
2023-05-21T13:27:37.506Z,100837.50
2023-05-21T13:32:30.778Z,100830.13
2023-05-21T13:37:27.796Z,100832.31
2023-05-21T13:42:21.357Z,100807.44
2023-05-21T13:47:15.045Z,100805.59
2023-05-21T13:52:09.638Z,100797.09
2023-05-21T13:57:04.958Z,100783.97
2023-05-21T14:01:58.245Z,100790.75
2023-05-21T14:06:52.467Z,100792.78
2023-05-21T14:11:45.977Z,100796.75
2023-05-21T14:16:40.543Z,100789.88
2023-05-21T14:21:33.726Z,100777.81
2023-05-21T14:26:27.289Z,100783.13
2023-05-21T14:31:21.653Z,100774.53
2023-05-21T14:36:16.844Z,100756.03
2023-05-21T14:41:10.047Z,100767.13
2023-05-21T14:46:03.663Z,100762.69
2023-05-21T14:50:56.864Z,100756.81
2023-05-21T14:55:51.471Z,100749.59
2023-05-21T15:00:44.711Z,100759.28
2023-05-21T15:05:38.452Z,100602.66
2023-05-21T15:10:31.765Z,100758.66
2023-05-21T15:15:26.463Z,100757.25
2023-05-21T15:20:19.796Z,100760.34
2023-05-21T15:25:13.027Z,100756.66
2023-05-21T15:30:07.456Z,100690.53
2023-05-21T15:35:02.420Z,100765.13
2023-05-21T15:39:55.806Z,100783.75
2023-05-21T15:44:49.072Z,100784.81
2023-05-21T15:49:42.267Z,100781.50
2023-05-21T15:54:36.894Z,100793.75
2023-05-21T15:59:30.148Z,100805.66
2023-05-21T16:04:23.343Z,100828.56
2023-05-21T16:09:17.592Z,100828.97
2023-05-21T16:14:12.844Z,100833.69
2023-05-21T16:19:06.312Z,100834.81
2023-05-21T16:23:59.658Z,100851.97
2023-05-21T16:28:53.003Z,100854.38
2023-05-21T16:33:47.680Z,100839.34
2023-05-21T16:38:44.805Z,100858.00
2023-05-21T16:43:38.353Z,100857.78
2023-05-21T16:48:32.809Z,100878.53
2023-05-21T16:53:27.358Z,100877.91
2023-05-21T16:58:20.486Z,100883.25
2023-05-21T17:03:13.885Z,100884.06
2023-05-21T17:08:08.686Z,100889.59
2023-05-21T17:13:17.601Z,100881.00
2023-05-21T17:18:15.145Z,100899.94
2023-05-21T17:23:08.547Z,100906.28
2023-05-21T17:28:03.321Z,100898.19
2023-05-21T17:32:58.351Z,100907.97
2023-05-21T17:37:53.330Z,100914.13
2023-05-21T17:42:46.881Z,100903.06
2023-05-21T17:47:41.521Z,100911.53
2023-05-21T17:52:34.780Z,100923.63
2023-05-21T18:02:20.971Z,100880.94
2023-05-21T18:07:16.212Z,100905.91
2023-05-21T18:12:09.677Z,100919.16
2023-05-21T18:17:03.590Z,100920.66
2023-05-21T18:21:56.894Z,100938.84
2023-05-21T18:26:51.668Z,100891.44
2023-05-21T18:31:45.578Z,100944.88
2023-05-21T18:36:40.169Z,100874.81
2023-05-21T18:41:33.510Z,100963.06
2023-05-21T18:46:28.137Z,100965.66
2023-05-21T18:51:21.459Z,100970.44
2023-05-21T18:56:17.201Z,100929.16
2023-05-21T19:01:10.528Z,100947.97
2023-05-21T19:06:05.350Z,100948.22
2023-05-21T19:10:58.805Z,100982.34
2023-05-21T19:15:52.005Z,100978.44
2023-05-21T19:20:45.535Z,100985.22
2023-05-21T19:25:40.122Z,100985.72
2023-05-21T19:30:36.467Z,100998.63
2023-05-21T19:35:30.232Z,101006.06
2023-05-21T19:40:23.826Z,101020.91
2023-05-21T19:45:18.380Z,101018.69
2023-05-21T19:50:12.319Z,100999.88
2023-05-21T19:55:08.733Z,101001.22
2023-05-21T20:00:01.945Z,101024.09
2023-05-21T20:05:07.700Z,101026.53
2023-05-21T20:10:03.265Z,101043.72
2023-05-21T20:14:57.000Z,101035.88
2023-05-21T20:19:50.354Z,101046.97
2023-05-21T20:24:45.216Z,101046.06
2023-05-21T20:29:38.645Z,101046.06
2023-05-21T20:34:33.289Z,101017.91
2023-05-21T20:39:27.928Z,101027.34
2023-05-21T20:44:22.664Z,101049.88
2023-05-21T20:49:17.763Z,101056.47
2023-05-21T20:54:11.062Z,101056.09
2023-05-21T20:59:04.226Z,101058.19
2023-05-21T21:03:59.087Z,101056.25
2023-05-21T21:08:52.320Z,101060.31
2023-05-21T21:13:45.552Z,101066.03
2023-05-21T21:18:38.673Z,101062.72
2023-05-21T21:23:33.355Z,101063.84
2023-05-21T21:28:26.483Z,101073.72
2023-05-21T21:33:20.013Z,101079.59
2023-05-21T21:38:13.176Z,100955.13
2023-05-21T21:43:07.767Z,101055.41
2023-05-21T21:48:00.976Z,101066.63
2023-05-21T21:52:56.374Z,101068.75
2023-05-21T21:57:49.493Z,101061.69
2023-05-21T22:02:46.889Z,101067.38
2023-05-21T22:07:42.187Z,101050.66
2023-05-21T22:12:35.313Z,101050.34
2023-05-21T22:17:34.484Z,101044.16
2023-05-21T22:22:29.038Z,101044.97
2023-05-21T22:27:22.518Z,101039.28
2023-05-21T22:32:15.697Z,101034.44
2023-05-21T22:37:08.860Z,101016.81
2023-05-21T22:42:03.531Z,101026.09
2023-05-21T22:47:00.322Z,101014.06
2023-05-21T22:51:54.436Z,101000.06
2023-05-21T22:56:49.384Z,100854.56
2023-05-21T23:01:44.033Z,101011.44
2023-05-21T23:06:37.233Z,101005.91
2023-05-21T23:11:30.503Z,101006.34
2023-05-21T23:16:24.196Z,101021.19
2023-05-21T23:21:19.495Z,101017.59
2023-05-21T23:26:12.689Z,101005.69
2023-05-21T23:31:07.330Z,100885.47
2023-05-21T23:36:00.534Z,100886.56
2023-05-21T23:40:55.147Z,101010.28
2023-05-21T23:45:48.405Z,101005.16
2023-05-21T23:50:41.795Z,101007.50
2023-05-21T23:55:35.145Z,100859.28
